Archiv-/Tagesdaten

--Timestamp---	Temp	Chill	HIndex	Humid	Dewpt	Wind	HiWind	WindDir	Rain	Barom	        Solar	ET	UV
--------------	----	-----	------	-----	-----	----	------	-------	----	-----	        -----	--	--
20090204 00:05	-1.5	-1.5	-1.5	89	-3.1	3	6	225	0.00	998.954	0	0.000	0
20090204 00:10	-1.6	-1.6	-1.6	89	-3.1	2	6	225	0.00	998.920	0	0.000	0
20090204 00:15	-1.6	-1.6	-1.6	89	-3.1	2	5	225	0.00	998.852	0	0.000	0
20090204 00:20	-1.6	-1.6	-1.6	89	-3.1	3	5	225	0.00	998.818	0	0.000	0
20090204 00:25	-1.6	-1.6	-1.6	90	-3.0	0	3	225	0.00	998.750	0	0.000	0
20090204 00:30	-1.6	-1.6	-1.6	89	-3.1	3	6	225	0.00	998.649	0	0.000	0
20090204 00:35	-1.6	-1.6	-1.6	89	-3.1	2	5	225	0.00	998.649	0	0.000	0
20090204 00:40	-1.6	-1.6	-1.6	89	-3.2	2	6	225	0.00	998.615	0	0.000	0
20090204 00:45	-1.7	-1.7	-1.7	89	-3.2	3	6	225	0.00	998.581	0	0.000	0
20090204 00:50	-1.7	-1.7	-1.7	89	-3.2	2	5	225	0.00	998.615	0	0.000	0
20090204 00:55	-1.7	-1.7	-1.7	89	-3.2	3	5	225	0.00	998.581	0	0.000	0
20090204 01:00	-1.7	-1.7	-1.7	90	-3.1	2	5	225	0.00	998.513	0	0.000	0
20090204 01:05	-1.7	-1.7	-1.7	89	-3.3	2	5	225	0.00	998.310	0	0.000	0
20090204 01:10	-1.7	-1.7	-1.7	89	-3.3	0	5	225	0.00	998.378	0	0.000	0
20090204 01:15	-1.8	-1.8	-1.8	90	-3.2	0	2	225	0.00	998.276	0	0.000	0
20090204 01:20	-1.8	-1.8	-1.8	89	-3.4	0	3	225	0.00	998.242	0	0.000	0
20090204 01:25	-1.8	-1.8	-1.8	89	-3.4	0	0	225	0.00	998.242	0	0.000	0
20090204 01:30	-1.9	-1.9	-1.9	89	-3.5	0	3	225	0.00	998.209	0	0.000	0
20090204 01:35	-1.9	-1.9	-1.9	89	-3.5	0	3	225	0.00	998.209	0	0.000	0
20090204 01:40	-1.9	-1.9	-1.9	89	-3.5	0	2	225	0.00	998.209	0	0.000	0
20090204 01:45	-1.9	-1.9	-1.9	89	-3.5	0	2	225	0.00	998.310	0	0.000	0
20090204 01:50	-1.9	-1.9	-1.9	89	-3.5	0	0	225	0.00	998.276	0	0.000	0
20090204 01:55	-2.0	-2.0	-2.0	89	-3.6	0	3	225	0.00	998.480	0	0.000	0
20090204 02:00	-2.1	-2.1	-2.1	89	-3.6	0	3	225	0.00	998.513	0	0.000	0
20090204 02:05	-2.1	-2.1	-2.1	90	-3.5	0	3	225	0.00	998.513	0	0.000	0
20090204 02:10	-2.1	-2.1	-2.1	90	-3.5	2	5	225	0.00	998.480	0	0.000	0
20090204 02:15	-2.1	-2.1	-2.1	90	-3.5	2	5	225	0.00	998.547	0	0.000	0
20090204 02:20	-2.1	-2.1	-2.1	90	-3.5	0	2	225	0.00	998.547	0	0.000	0
20090204 02:25	-2.1	-2.1	-2.1	90	-3.5	0	0	225	0.00	998.547	0	0.000	0
20090204 02:30	-2.2	-2.2	-2.2	89	-3.7	0	2	225	0.00	998.513	0	0.000	0
20090204 02:35	-2.2	-2.2	-2.2	89	-3.8	2	3	225	0.00	998.513	0	0.000	0
20090204 02:40	-2.2	-2.2	-2.2	89	-3.8	0	2	225	0.00	998.446	0	0.000	0
20090204 02:45	-2.3	-2.3	-2.3	89	-3.8	0	3	225	0.00	998.446	0	0.000	0
20090204 02:50	-2.3	-2.3	-2.3	89	-3.9	2	6	225	0.00	998.480	0	0.000	0
20090204 02:55	-2.4	-2.4	-2.4	90	-3.8	3	6	225	0.00	998.480	0	0.000	0
20090204 03:00	-2.4	-2.4	-2.4	90	-3.8	2	5	225	0.00	998.513	0	0.000	0
20090204 03:05	-2.4	-2.4	-2.4	90	-3.8	2	5	225	0.00	998.513	0	0.000	0
20090204 03:10	-2.4	-2.4	-2.4	90	-3.8	3	6	225	0.00	998.513	0	0.000	0
20090204 03:15	-2.4	-2.4	-2.4	90	-3.8	2	6	225	0.00	998.480	0	0.000	0
20090204 03:20	-2.4	-2.4	-2.4	90	-3.8	0	2	225	0.00	998.513	0	0.000	0
20090204 03:25	-2.4	-2.4	-2.4	90	-3.9	0	3	225	0.00	998.513	0	0.000	0
20090204 03:30	-2.5	-2.5	-2.5	90	-3.9	2	5	225	0.00	998.513	0	0.000	0
20090204 03:35	-2.5	-2.5	-2.5	90	-3.9	0	3	225	0.00	998.547	0	0.000	0
20090204 03:40	-2.5	-2.5	-2.5	90	-3.9	0	3	225	0.00	998.513	0	0.000	0
20090204 03:45	-2.5	-2.5	-2.5	90	-3.9	2	5	225	0.00	998.446	0	0.000	0
20090204 03:50	-2.5	-2.5	-2.5	90	-3.9	0	3	225	0.00	998.412	0	0.000	0
20090204 03:55	-2.6	-2.6	-2.6	90	-4.0	0	2	225	0.00	998.446	0	0.000	0
20090204 04:00	-2.6	-2.6	-2.6	90	-4.0	0	3	225	0.00	998.480	0	0.000	0
20090204 04:05	-2.6	-2.6	-2.6	90	-4.0	2	6	225	0.00	998.615	0	0.000	0
20090204 04:10	-2.6	-2.6	-2.6	90	-4.0	3	6	225	0.00	998.581	0	0.000	0
20090204 04:15	-2.6	-2.6	-2.6	90	-4.0	3	6	225	0.00	998.581	0	0.000	0
20090204 04:20	-2.6	-2.6	-2.6	90	-4.0	3	5	225	0.00	998.615	0	0.000	0
20090204 04:25	-2.5	-2.5	-2.5	90	-3.9	3	6	225	0.00	998.480	0	0.000	0
20090204 04:30	-2.5	-2.5	-2.5	90	-3.9	2	3	225	0.00	998.480	0	0.000	0
20090204 04:35	-2.6	-2.6	-2.6	90	-4.0	0	3	225	0.00	998.615	0	0.000	0
20090204 04:40	-2.6	-2.6	-2.6	90	-4.0	2	5	225	0.00	998.649	0	0.000	0
20090204 04:45	-2.7	-2.7	-2.7	90	-4.1	2	5	225	0.00	998.683	0	0.000	0
20090204 04:50	-2.7	-2.7	-2.7	91	-3.9	0	3	225	0.00	998.615	0	0.000	0
20090204 04:55	-2.7	-2.7	-2.7	90	-4.1	0	2	225	0.00	998.581	0	0.000	0
20090204 05:00	-2.7	-2.7	-2.7	90	-4.1	0	2	225	0.00	998.581	0	0.000	0
20090204 05:05	-2.7	-2.7	-2.7	91	-4.0	0	3	225	0.00	998.683	0	0.000	0
20090204 05:10	-2.7	-2.7	-2.7	91	-4.0	0	3	225	0.00	998.649	0	0.000	0
20090204 05:15	-2.7	-2.7	-2.7	91	-4.0	0	3	225	0.00	998.649	0	0.000	0
20090204 05:20	-2.7	-2.7	-2.7	91	-4.0	0	0	225	0.00	998.581	0	0.000	0
20090204 05:25	-2.7	-2.7	-2.7	90	-4.1	0	0	225	0.00	998.547	0	0.000	0
20090204 05:30	-2.8	-2.8	-2.8	91	-4.0	0	0	225	0.00	998.547	0	0.000	0
20090204 05:35	-2.8	-2.8	-2.8	90	-4.2	0	0	225	0.00	998.547	0	0.000	0
20090204 05:40	-2.8	-2.8	-2.8	90	-4.2	0	2	225	0.00	998.581	0	0.000	0
20090204 05:45	-2.7	-2.7	-2.7	90	-4.1	0	5	225	0.00	998.649	0	0.000	0
20090204 05:50	-2.7	-2.7	-2.7	90	-4.1	2	5	225	0.00	998.649	0	0.000	0
20090204 05:55	-2.7	-2.7	-2.7	90	-4.1	2	5	225	0.00	998.649	0	0.000	0
20090204 06:00	-2.7	-2.7	-2.7	90	-4.1	0	3	225	0.00	998.683	0	0.000	0
20090204 06:05	-2.8	-2.8	-2.8	90	-4.2	2	5	225	0.00	998.920	0	0.000	0
20090204 06:10	-2.8	-2.8	-2.8	91	-4.0	2	3	225	0.00	998.954	0	0.000	0
20090204 06:15	-2.7	-2.7	-2.7	91	-4.0	2	6	225	0.00	998.954	0	0.000	0
20090204 06:20	-2.8	-2.8	-2.8	91	-4.0	3	6	225	0.00	999.021	0	0.000	0
20090204 06:25	-2.8	-2.8	-2.8	90	-4.2	0	5	225	0.00	999.021	0	0.000	0
20090204 06:30	-2.8	-2.8	-2.8	90	-4.2	0	2	225	0.00	999.021	0	0.000	0
20090204 06:35	-2.8	-2.8	-2.8	90	-4.2	0	2	225	0.00	998.954	0	0.000	0
20090204 06:40	-2.9	-2.9	-2.9	90	-4.3	0	3	225	0.00	998.987	0	0.000	0
20090204 06:45	-2.9	-2.9	-2.9	91	-4.2	0	3	225	0.00	998.954	0	0.000	0
20090204 06:50	-2.9	-2.9	-2.9	91	-4.1	0	2	225	0.00	999.021	0	0.000	0
20090204 06:55	-2.9	-2.9	-2.9	91	-4.1	0	2	225	0.00	999.021	0	0.000	0
20090204 07:00	-2.9	-2.9	-2.9	91	-4.1	2	6	225	0.00	999.055	0	0.000	0
20090204 07:05	-2.8	-2.8	-2.8	91	-4.1	2	5	225	0.00	999.089	0	0.000	0
20090204 07:10	-2.8	-2.8	-2.8	91	-4.1	2	5	225	0.00	999.089	0	0.000	0
20090204 07:15	-2.8	-2.8	-2.8	91	-4.1	2	6	225	0.00	999.055	0	0.000	0
20090204 07:20	-2.8	-2.8	-2.8	90	-4.2	0	5	225	0.00	999.055	0	0.000	0
20090204 07:25	-2.8	-2.8	-2.8	90	-4.2	0	2	225	0.00	999.055	0	0.000	0
20090204 07:30	-2.9	-2.9	-2.9	90	-4.4	0	2	225	0.00	999.123	0	0.000	0
20090204 07:35	-2.9	-2.9	-2.9	90	-4.4	0	0	225	0.00	999.123	0	0.000	0
20090204 07:40	-3.0	-3.0	-3.0	90	-4.4	0	2	225	0.00	999.123	0	0.000	0
20090204 07:45	-3.0	-3.0	-3.0	90	-4.4	0	3	225	0.00	999.191	3	0.000	0
20090204 07:50	-3.0	-3.0	-3.0	90	-4.4	0	2	225	0.00	999.224	6	0.000	0
20090204 07:55	-3.0	-3.0	-3.0	90	-4.4	0	2	225	0.00	999.258	7	0.000	0
20090204 08:00	-3.0	-3.0	-3.0	90	-4.4	0	2	225	0.00	999.326	7	0.000	0
20090204 08:05	-2.9	-2.9	-2.9	90	-4.4	0	2	225	0.00	999.529	10	0.000	0
20090204 08:10	-2.9	-2.9	-2.9	90	-4.4	0	2	225	0.00	999.495	13	0.000	0
20090204 08:15	-2.8	-2.8	-2.8	91	-4.1	0	3	225	0.00	999.495	15	0.000	0
20090204 08:20	-2.8	-2.8	-2.8	91	-4.0	3	6	225	0.00	999.665	13	0.000	0
20090204 08:25	-2.7	-2.7	-2.7	91	-4.0	3	6	225	0.00	999.631	15	0.000	0
20090204 08:30	-2.7	-2.7	-2.7	90	-4.1	3	6	225	0.00	999.665	17	0.000	0
20090204 08:35	-2.7	-2.7	-2.7	90	-4.1	2	5	225	0.00	999.529	26	0.000	0
20090204 08:40	-2.6	-2.6	-2.6	90	-4.0	0	3	225	0.00	999.631	32	0.000	0
20090204 08:45	-2.5	-2.5	-2.5	90	-3.9	2	5	225	0.00	999.529	33	0.000	0
20090204 08:50	-2.4	-2.4	-2.4	90	-3.9	0	3	225	0.00	999.495	35	0.000	0
20090204 08:55	-2.4	-2.4	-2.4	90	-3.8	0	2	225	0.00	999.495	37	0.000	0
20090204 09:00	-2.3	-2.3	-2.3	90	-3.7	0	0	225	0.00	999.428	37	0.000	0
20090204 09:05	-2.2	-2.2	-2.2	90	-3.6	0	2	225	0.00	999.631	34	0.000	0
20090204 09:10	-2.1	-2.1	-2.1	90	-3.5	0	0	225	0.00	999.495	30	0.000	0
20090204 09:15	-2.0	-2.0	-2.0	90	-3.4	0	0	225	0.00	999.529	28	0.000	0
20090204 09:20	-1.8	-1.8	-1.8	90	-3.3	0	0	225	0.00	999.495	27	0.000	0
20090204 09:25	-1.8	-1.8	-1.8	90	-3.2	0	2	225	0.00	999.495	32	0.000	0
20090204 09:30	-1.7	-1.7	-1.7	90	-3.1	0	2	225	0.00	999.529	33	0.000	0
20090204 09:35	-1.5	-1.5	-1.5	89	-3.1	2	3	225	0.00	999.563	35	0.000	0
20090204 09:40	-1.4	-1.4	-1.4	89	-3.0	3	6	225	0.00	999.631	39	0.000	0
20090204 09:45	-1.3	-1.3	-1.3	89	-2.9	2	5	225	0.00	999.597	44	0.000	0
20090204 09:50	-1.2	-1.2	-1.2	89	-2.8	0	3	225	0.00	999.563	50	0.000	0
20090204 09:55	-1.1	-1.1	-1.1	89	-2.6	0	0	225	0.00	999.563	53	0.000	0
20090204 10:00	-0.9	-0.9	-0.9	89	-2.5	0	0	225	0.00	999.529	56	0.020	0
20090204 10:05	-0.8	-0.8	-0.8	89	-2.4	0	0	225	0.00	999.428	59	0.000	0
20090204 10:10	-0.7	-0.7	-0.7	89	-2.3	0	0	225	0.00	999.462	61	0.000	0
20090204 10:15	-0.4	-0.4	-0.4	88	-2.2	0	0	225	0.00	999.428	63	0.000	0
20090204 10:20	-0.3	-0.3	-0.3	88	-2.0	0	0	225	0.00	999.428	65	0.000	0
20090204 10:25	-0.1	-0.1	-0.1	88	-1.8	0	0	225	0.00	999.326	65	0.000	1
20090204 10:30	0.2	0.2	0.2	88	-1.6	0	0	225	0.00	999.258	64	0.000	1
20090204 10:35	0.3	0.3	0.3	87	-1.6	2	5	225	0.00	999.258	63	0.000	1
20090204 10:40	0.4	0.4	0.4	87	-1.5	0	3	225	0.00	999.360	65	0.000	1
20090204 10:45	0.5	0.5	0.5	86	-1.6	0	0	225	0.00	999.394	65	0.000	1
20090204 10:50	0.7	0.7	0.7	86	-1.4	0	2	225	0.00	999.495	68	0.000	1
20090204 10:55	0.7	0.7	0.7	86	-1.3	0	0	225	0.00	999.495	70	0.000	1
20090204 11:00	0.9	0.9	0.9	86	-1.2	0	2	225	0.00	999.326	70	0.020	1
20090204 11:05	1.1	1.1	1.1	86	-1.0	0	2	225	0.00	999.394	75	0.000	1
20090204 11:10	1.2	1.2	1.2	86	-0.9	2	5	225	0.00	999.292	333	0.000	1
20090204 11:15	1.3	1.3	1.3	86	-0.8	2	5	225	0.00	999.258	340	0.000	1
20090204 11:20	1.3	1.3	1.3	86	-0.7	2	5	225	0.00	999.258	346	0.000	1
20090204 11:25	1.5	1.5	1.5	85	-0.7	2	5	225	0.00	999.157	352	0.000	1
20090204 11:30	1.6	1.6	1.6	84	-0.8	2	3	225	0.00	999.157	353	0.000	1
20090204 11:35	1.7	1.7	1.7	84	-0.7	2	5	225	0.00	999.191	353	0.000	1
20090204 11:40	1.6	1.6	1.6	84	-0.8	2	5	225	0.00	999.089	361	0.000	1
20090204 11:45	1.6	1.6	1.6	84	-0.9	3	5	225	0.00	998.987	368	0.000	1
20090204 11:50	1.6	1.6	1.6	84	-0.9	3	5	225	0.00	998.954	371	0.000	1
20090204 11:55	1.7	1.7	1.7	84	-0.7	3	5	225	0.00	999.055	370	0.000	1
20090204 12:00	1.7	1.7	1.7	84	-0.7	2	5	225	0.00	999.055	372	0.100	1
20090204 12:05	1.8	1.8	1.8	84	-0.6	0	2	225	0.00	999.089	374	0.000	1
20090204 12:10	2.0	2.0	2.0	84	-0.4	2	3	225	0.00	998.954	375	0.000	1
20090204 12:15	2.1	2.1	2.1	83	-0.5	0	3	225	0.00	998.886	377	0.000	1
20090204 12:20	2.2	2.2	2.2	83	-0.4	2	5	225	0.00	998.750	380	0.000	1
20090204 12:25	2.3	2.3	2.3	83	-0.3	2	3	225	0.00	998.784	378	0.000	1
20090204 12:30	2.5	2.5	2.5	83	-0.1	2	5	22	0.00	998.683	379	0.000	1
20090204 12:35	2.6	2.6	2.6	83	0.0	3	6	22	0.00	998.480	378	0.000	1
20090204 12:40	2.7	2.7	2.7	83	0.1	2	5	22	0.00	998.412	381	0.000	1
20090204 12:45	2.9	2.9	2.9	83	0.3	3	6	22	0.00	998.378	368	0.000	1
20090204 12:50	3.1	3.1	3.1	82	0.3	2	6	22	0.00	998.378	374	0.000	1
20090204 12:55	3.1	3.1	3.1	82	0.3	3	6	22	0.00	998.310	377	0.000	1
20090204 13:00	3.2	3.2	3.2	82	0.4	2	6	22	0.00	998.310	376	0.120	1
20090204 13:05	3.3	3.3	3.3	82	0.6	2	6	22	0.00	998.344	376	0.000	1
20090204 13:10	3.4	3.4	3.4	83	0.8	3	6	337	0.00	998.310	370	0.000	1
20090204 13:15	3.3	3.3	3.3	84	0.8	3	10	0	0.00	998.276	367	0.000	1
20090204 13:20	3.2	3.2	3.2	83	0.6	5	8	22	0.00	998.310	364	0.000	1
20090204 13:25	2.8	1.1	2.8	82	0.1	6	11	22	0.00	998.310	359	0.000	1
20090204 13:30	2.4	0.6	2.4	84	0.0	6	11	22	0.00	998.344	358	0.000	1
20090204 13:35	2.3	2.3	2.3	85	0.1	5	10	22	0.00	998.141	353	0.000	1
20090204 13:40	2.2	0.4	2.2	85	-0.0	6	11	22	0.00	998.039	345	0.000	1
20090204 13:45	2.2	0.3	2.2	85	-0.1	6	11	22	0.00	998.039	343	0.000	1
20090204 13:50	2.1	0.3	2.1	86	0.0	6	11	22	0.00	998.073	333	0.000	1
20090204 13:55	2.0	0.1	2.0	86	-0.1	6	10	22	0.00	998.005	325	0.000	1
20090204 14:00	1.8	1.8	1.8	87	-0.1	5	10	22	0.00	998.107	315	0.100	1
20090204 14:05	1.8	-0.1	1.8	87	-0.2	6	11	22	0.00	998.073	312	0.000	1
20090204 14:10	1.7	-0.2	1.7	87	-0.2	6	11	22	0.00	998.039	300	0.000	1
20090204 14:15	1.8	1.8	1.8	87	-0.1	5	8	22	0.00	997.938	307	0.000	1
20090204 14:20	1.9	0.1	1.9	87	0.0	6	11	22	0.00	997.904	333	0.000	1
20090204 14:25	2.1	2.1	2.1	87	0.1	3	8	0	0.00	997.938	326	0.000	1
20090204 14:30	2.0	2.0	2.0	87	0.1	3	6	0	0.00	997.904	275	0.000	1
20090204 14:35	1.8	1.8	1.8	86	-0.3	3	8	0	0.00	998.141	238	0.000	1
20090204 14:40	1.4	1.4	1.4	87	-0.5	5	10	22	0.00	998.107	234	0.000	1
20090204 14:45	1.2	1.2	1.2	87	-0.7	5	8	22	0.00	998.107	208	0.000	1
20090204 14:50	1.0	1.0	1.0	88	-0.8	5	8	22	0.00	998.107	154	0.000	0
20090204 14:55	0.7	0.7	0.7	89	-0.9	3	8	337	0.00	998.310	140	0.000	0
20090204 15:00	0.5	0.5	0.5	89	-1.1	3	6	22	0.00	998.378	114	0.080	0
20090204 15:05	0.3	0.3	0.3	90	-1.1	3	8	0	0.00	998.310	102	0.000	0
20090204 15:10	0.2	0.2	0.2	90	-1.2	3	6	337	0.00	998.480	91	0.000	0
20090204 15:15	0.1	0.1	0.1	90	-1.4	5	11	22	0.00	998.513	84	0.000	0
20090204 15:20	-0.1	-0.1	-0.1	91	-1.3	3	8	22	0.00	998.649	77	0.000	0
20090204 15:25	-0.2	-0.2	-0.2	91	-1.5	3	8	22	0.00	998.717	71	0.000	0
20090204 15:30	-0.3	-0.3	-0.3	91	-1.6	3	6	22	0.00	998.750	66	0.000	0
20090204 15:35	-0.6	-0.6	-0.6	91	-1.8	2	6	337	0.00	998.784	56	0.000	0
20090204 15:40	-0.7	-0.7	-0.7	92	-1.8	2	6	0	0.00	998.818	53	0.000	0
20090204 15:45	-0.7	-0.7	-0.7	92	-1.8	3	6	0	0.00	998.784	48	0.000	0
20090204 15:50	-0.8	-0.8	-0.8	92	-1.9	3	11	22	0.00	998.920	43	0.000	0
20090204 15:55	-0.8	-0.8	-0.8	92	-2.0	5	8	0	0.00	998.852	38	0.000	0
20090204 16:00	-0.9	-0.9	-0.9	92	-2.1	3	8	0	0.00	999.123	34	0.020	0
20090204 16:05	-0.9	-0.9	-0.9	93	-1.9	3	8	0	0.00	999.191	37	0.000	0
20090204 16:10	-1.0	-1.0	-1.0	93	-2.0	5	8	22	0.00	999.292	30	0.000	0
20090204 16:15	-1.0	-1.0	-1.0	93	-2.0	3	8	0	0.00	999.326	27	0.000	0
20090204 16:20	-1.0	-1.0	-1.0	93	-2.0	5	8	0	0.00	999.394	27	0.000	0
20090204 16:25	-1.1	-1.1	-1.1	93	-2.0	3	6	0	0.00	999.495	24	0.000	0
20090204 16:30	-1.1	-1.1	-1.1	93	-2.0	2	5	0	0.00	999.631	21	0.000	0
20090204 16:35	-1.1	-1.1	-1.1	93	-2.1	3	6	0	0.00	999.597	18	0.000	0
20090204 16:40	-1.2	-1.2	-1.2	93	-2.2	2	6	0	0.00	999.732	15	0.000	0
20090204 16:45	-1.3	-1.3	-1.3	93	-2.3	3	8	0	0.00	999.766	14	0.000	0
20090204 16:50	-1.4	-1.4	-1.4	93	-2.4	5	6	0	0.00	999.732	11	0.000	0
20090204 16:55	-1.5	-1.5	-1.5	93	-2.5	3	6	0	0.00	999.766	7	0.000	0
20090204 17:00	-1.5	-1.5	-1.5	93	-2.5	2	6	0	0.00	999.834	6	0.000	0
20090204 17:05	-1.5	-1.5	-1.5	93	-2.5	2	5	0	0.00	999.936	2	0.000	0
20090204 17:10	-1.5	-1.5	-1.5	93	-2.5	2	5	0	0.00	1000.003	0	0.000	0
20090204 17:15	-1.5	-1.5	-1.5	93	-2.5	0	3	0	0.00	1000.037	0	0.000	0
20090204 17:20	-1.4	-1.4	-1.4	94	-2.3	0	3	0	0.00	1000.139	0	0.000	0
20090204 17:25	-1.4	-1.4	-1.4	94	-2.3	0	3	0	0.00	1000.139	0	0.000	0
20090204 17:30	-1.5	-1.5	-1.5	94	-2.3	2	5	0	0.00	1000.207	0	0.000	0
20090204 17:35	-1.6	-1.6	-1.6	94	-2.4	0	2	0	0.00	1000.308	0	0.000	0
20090204 17:40	-1.7	-1.7	-1.7	94	-2.5	0	3	0	0.00	1000.342	0	0.000	0
20090204 17:45	-1.7	-1.7	-1.7	94	-2.5	0	2	0	0.00	1000.308	0	0.000	0
20090204 17:50	-1.7	-1.7	-1.7	94	-2.5	0	0	0	0.00	1000.308	0	0.000	0
20090204 17:55	-1.7	-1.7	-1.7	94	-2.5	0	2	0	0.00	1000.274	0	0.000	0
20090204 18:00	-1.7	-1.7	-1.7	94	-2.5	2	5	0	0.00	1000.308	0	0.000	0
20090204 18:05	-1.7	-1.7	-1.7	94	-2.5	2	5	0	0.00	1000.342	0	0.000	0
20090204 18:10	-1.6	-1.6	-1.6	94	-2.4	0	3	0	0.00	1000.410	0	0.000	0
20090204 18:15	-1.6	-1.6	-1.6	94	-2.4	2	5	0	0.00	1000.477	0	0.000	0
20090204 18:20	-1.7	-1.7	-1.7	94	-2.6	2	5	0	0.00	1000.308	0	0.000	0
20090204 18:25	-1.8	-1.8	-1.8	94	-2.6	3	6	90	0.00	1000.376	0	0.000	0
20090204 18:30	-1.8	-1.8	-1.8	94	-2.6	0	2	90	0.00	1000.511	0	0.000	0
20090204 18:35	-1.8	-1.8	-1.8	94	-2.7	0	2	90	0.00	1000.511	0	0.000	0
20090204 18:40	-1.9	-1.9	-1.9	94	-2.8	0	3	90	0.00	1000.579	0	0.000	0
20090204 18:45	-1.9	-1.9	-1.9	94	-2.8	2	5	90	0.00	1000.545	0	0.000	0
20090204 18:50	-1.9	-1.9	-1.9	94	-2.8	0	3	90	0.00	1000.545	0	0.000	0
20090204 18:55	-1.9	-1.9	-1.9	94	-2.8	0	3	90	0.00	1000.444	0	0.000	0
20090204 19:00	-1.9	-1.9	-1.9	94	-2.7	0	0	90	0.00	1000.545	0	0.000	0
20090204 19:05	-1.8	-1.8	-1.8	94	-2.7	0	0	90	0.00	1000.545	0	0.000	0
20090204 19:10	-1.8	-1.8	-1.8	94	-2.7	2	5	90	0.00	1000.477	0	0.000	0
20090204 19:15	-1.8	-1.8	-1.8	94	-2.7	0	3	90	0.00	1000.545	0	0.000	0
20090204 19:20	-1.9	-1.9	-1.9	94	-2.8	2	5	90	0.00	1000.579	0	0.000	0
20090204 19:25	-1.9	-1.9	-1.9	94	-2.7	0	2	90	0.00	1000.681	0	0.000	0
20090204 19:30	-1.8	-1.8	-1.8	94	-2.6	0	3	157	0.00	1000.681	0	0.000	0
20090204 19:35	-1.8	-1.8	-1.8	94	-2.7	2	5	157	0.00	1000.715	0	0.000	0
20090204 19:40	-1.9	-1.9	-1.9	94	-2.7	0	5	180	0.00	1000.748	0	0.000	0
20090204 19:45	-1.9	-1.9	-1.9	94	-2.7	0	2	180	0.00	1000.681	0	0.000	0
20090204 19:50	-1.9	-1.9	-1.9	94	-2.7	0	5	180	0.00	1000.816	0	0.000	0
20090204 19:55	-2.0	-2.0	-2.0	94	-2.8	0	3	180	0.00	1001.087	0	0.000	0
20090204 20:00	-2.0	-2.0	-2.0	94	-2.8	0	5	180	0.00	1001.189	0	0.000	0
20090204 20:05	-1.9	-1.9	-1.9	94	-2.8	0	0	180	0.00	1001.155	0	0.000	0
20090204 20:10	-1.9	-1.9	-1.9	94	-2.7	0	3	180	0.00	1001.256	0	0.000	0
20090204 20:15	-1.9	-1.9	-1.9	94	-2.7	0	6	180	0.00	1001.392	0	0.000	0
20090204 20:20	-1.8	-1.8	-1.8	94	-2.7	0	2	180	0.00	1001.392	0	0.000	0
20090204 20:25	-1.9	-1.9	-1.9	94	-2.8	0	3	180	0.00	1001.358	0	0.000	0
20090204 20:30	-2.0	-2.0	-2.0	94	-2.8	0	3	180	0.00	1001.493	0	0.000	0
20090204 20:35	-2.0	-2.0	-2.0	94	-2.8	0	0	180	0.00	1001.426	0	0.000	0
20090204 20:40	-1.9	-1.9	-1.9	94	-2.8	0	2	180	0.00	1001.392	0	0.000	0
20090204 20:45	-2.0	-2.0	-2.0	94	-2.8	0	2	180	0.00	1001.426	0	0.000	0
20090204 20:50	-2.1	-2.1	-2.1	94	-2.9	0	0	180	0.00	1001.561	0	0.000	0
20090204 20:55	-2.1	-2.1	-2.1	94	-2.9	0	0	180	0.00	1001.527	0	0.000	0
20090204 21:00	-2.2	-2.2	-2.2	94	-3.0	0	0	180	0.00	1001.493	0	0.000	0
20090204 21:05	-2.2	-2.2	-2.2	94	-3.0	0	0	180	0.00	1001.527	0	0.000	0
20090204 21:10	-2.2	-2.2	-2.2	94	-3.1	0	3	180	0.00	1001.493	0	0.000	0
20090204 21:15	-2.3	-2.3	-2.3	94	-3.1	0	2	180	0.00	1001.561	0	0.000	0
20090204 21:20	-2.3	-2.3	-2.3	94	-3.2	0	0	180	0.00	1001.595	0	0.000	0
20090204 21:25	-2.3	-2.3	-2.3	94	-3.2	0	0	180	0.00	1001.595	0	0.000	0
20090204 21:30	-2.4	-2.4	-2.4	94	-3.2	0	2	180	0.00	1001.527	0	0.000	0
20090204 21:35	-2.4	-2.4	-2.4	94	-3.2	0	3	180	0.00	1001.460	0	0.000	0
20090204 21:40	-2.5	-2.5	-2.5	94	-3.3	0	3	180	0.00	1001.493	0	0.000	0
20090204 21:45	-2.6	-2.6	-2.6	94	-3.4	2	3	180	0.00	1001.629	0	0.000	0
20090204 21:50	-2.7	-2.7	-2.7	94	-3.5	0	2	180	0.00	1001.663	0	0.000	0
20090204 21:55	-2.8	-2.8	-2.8	94	-3.6	2	3	180	0.00	1001.663	0	0.000	0
20090204 22:00	-2.8	-2.8	-2.8	94	-3.7	0	0	180	0.00	1001.730	0	0.000	0
20090204 22:05	-2.8	-2.8	-2.8	94	-3.7	0	0	180	0.00	1001.527	0	0.000	0
20090204 22:10	-2.8	-2.8	-2.8	94	-3.7	0	0	180	0.00	1001.527	0	0.000	0
20090204 22:15	-2.8	-2.8	-2.8	94	-3.7	0	0	180	0.00	1001.460	0	0.000	0
20090204 22:20	-2.8	-2.8	-2.8	94	-3.7	0	0	180	0.00	1001.460	0	0.000	0
20090204 22:25	-2.9	-2.9	-2.9	94	-3.7	0	0	180	0.00	1001.527	0	0.000	0
20090204 22:30	-2.8	-2.8	-2.8	94	-3.7	0	2	180	0.00	1001.595	0	0.000	0
20090204 22:35	-2.9	-2.9	-2.9	94	-3.7	0	0	180	0.00	1001.629	0	0.000	0
20090204 22:40	-2.9	-2.9	-2.9	94	-3.8	0	3	180	0.00	1001.527	0	0.000	0
20090204 22:45	-2.9	-2.9	-2.9	94	-3.7	0	3	180	0.00	1001.460	0	0.000	0
20090204 22:50	-2.8	-2.8	-2.8	94	-3.7	0	3	180	0.00	1001.426	0	0.000	0
20090204 22:55	-2.8	-2.8	-2.8	94	-3.7	2	5	180	0.00	1001.426	0	0.000	0
20090204 23:00	-2.9	-2.9	-2.9	94	-3.8	2	5	180	0.00	1001.324	0	0.000	0
20090204 23:05	-2.9	-2.9	-2.9	94	-3.8	2	5	180	0.00	1001.222	0	0.000	0
20090204 23:10	-3.0	-3.0	-3.0	94	-3.8	0	5	180	0.00	1001.155	0	0.000	0
20090204 23:15	-3.0	-3.0	-3.0	94	-3.8	2	3	180	0.00	1001.087	0	0.000	0
20090204 23:20	-3.0	-3.0	-3.0	94	-3.8	0	3	180	0.00	1001.121	0	0.000	0
20090204 23:25	-3.0	-3.0	-3.0	94	-3.8	0	3	180	0.00	1001.189	0	0.000	0
20090204 23:30	-3.0	-3.0	-3.0	94	-3.8	0	3	180	0.00	1001.256	0	0.000	0
20090204 23:35	-3.0	-3.0	-3.0	94	-3.8	0	2	180	0.00	1001.392	0	0.000	0
20090204 23:40	-3.0	-3.0	-3.0	94	-3.8	0	0	180	0.00	1001.460	0	0.000	0
20090204 23:45	-3.0	-3.0	-3.0	94	-3.8	0	0	180	0.00	1001.426	0	0.000	0
20090204 23:50	-3.0	-3.0	-3.0	94	-3.8	0	3	180	0.00	1001.493	0	0.000	0
20090204 23:55	-3.0	-3.0	-3.0	94	-3.8	2	3	180	0.00	1001.426	0	0.000	0
20090204 24:00	-3.0	-3.0	-3.0	94	-3.8	2	5	180	0.00	1001.561	0	0.000	0



Please note the license to use and transfer of this data:
http://creativecommons.org/licenses/by-nc-sa/3.0/deed.en

Bitte beachten sie die Lizenz zur Verwertung und Weitergabe der Daten:
http://creativecommons.org/licenses/by-nc-sa/3.0/deed.de

zurück zur Übersicht der Archivdaten (Monats und Tagesdaten)

Cookies helfen bei der Bereitstellung von Inhalten. Durch die Nutzung dieser Seiten erklärst du dich damit einverstanden, dass Cookies auf deinem Rechner gespeichert werden. Weitere Information